createdAt,value
2017-09-21T00:00:44.967Z,15.51
2017-09-21T00:01:54.253Z,15.5
2017-09-21T00:03:03.092Z,15.46
2017-09-21T00:04:12.111Z,15.44
2017-09-21T00:05:20.983Z,15.41
2017-09-21T00:06:30.203Z,15.49
2017-09-21T00:07:39.515Z,15.49
2017-09-21T00:08:48.760Z,15.51
2017-09-21T00:09:57.645Z,15.49
2017-09-21T00:11:06.808Z,15.44
2017-09-21T00:12:15.645Z,15.44
2017-09-21T00:13:24.481Z,15.49
2017-09-21T00:14:33.313Z,15.38
2017-09-21T00:15:42.151Z,15.49
2017-09-21T00:16:50.987Z,15.47
2017-09-21T00:17:59.822Z,15.35
2017-09-21T00:19:08.653Z,15.49
2017-09-21T00:20:17.488Z,15.47
2017-09-21T00:21:26.325Z,15.49
2017-09-21T00:22:35.165Z,15.5
2017-09-21T00:23:44.006Z,15.47
2017-09-21T00:24:52.840Z,15.44
2017-09-21T00:26:01.673Z,15.41
2017-09-21T00:27:10.506Z,15.38
2017-09-21T00:28:19.347Z,15.39
2017-09-21T00:29:28.182Z,15.39
2017-09-21T00:30:37.023Z,15.38
2017-09-21T00:31:46.180Z,15.32
2017-09-21T00:32:55.010Z,15.36
2017-09-21T00:34:03.849Z,15.32
2017-09-21T00:35:12.690Z,15.39
2017-09-21T00:36:21.527Z,15.32
2017-09-21T00:37:30.366Z,15.31
2017-09-21T00:38:39.196Z,15.34
2017-09-21T00:39:48.035Z,15.35
2017-09-21T00:40:56.874Z,15.32
2017-09-21T00:42:05.721Z,15.17
2017-09-21T00:43:14.556Z,15.2
2017-09-21T00:44:23.394Z,15.23
2017-09-21T00:45:32.228Z,15.23
2017-09-21T00:46:41.064Z,15.2
2017-09-21T00:47:49.901Z,15.25
2017-09-21T00:48:59.057Z,15.2
2017-09-21T00:50:07.898Z,15.19
2017-09-21T00:51:16.733Z,15.16
2017-09-21T00:52:25.566Z,15.17
2017-09-21T00:53:34.400Z,15.14
2017-09-21T00:54:43.240Z,15.2
2017-09-21T00:55:52.076Z,15.16
2017-09-21T00:57:00.910Z,15.25
2017-09-21T00:58:09.746Z,15.2
2017-09-21T00:59:18.583Z,15.2
2017-09-21T01:00:27.414Z,15.19
2017-09-21T01:01:36.254Z,15.2
2017-09-21T01:02:45.095Z,15.21
2017-09-21T01:03:53.926Z,15.27
2017-09-21T01:05:02.763Z,15.21
2017-09-21T01:06:11.920Z,15.23
2017-09-21T01:07:20.760Z,15.23
2017-09-21T01:08:29.920Z,15.16
2017-09-21T01:09:38.768Z,15.2
2017-09-21T01:10:47.604Z,15.28
2017-09-21T01:11:56.437Z,15.2
2017-09-21T01:13:05.272Z,15.2
2017-09-21T01:14:14.104Z,15.19
2017-09-21T01:15:22.943Z,15.19
2017-09-21T01:16:31.778Z,15.25
2017-09-21T01:17:40.613Z,15.32
2017-09-21T01:18:49.458Z,15.27
2017-09-21T01:19:58.291Z,15.31
2017-09-21T01:21:07.124Z,15.23
2017-09-21T01:22:15.958Z,15.21
2017-09-21T01:23:24.797Z,15.17
2017-09-21T01:24:33.636Z,15.23
2017-09-21T01:25:42.466Z,15.25
2017-09-21T01:26:51.303Z,15.2
2017-09-21T01:28:00.138Z,15.2
2017-09-21T01:29:08.975Z,15.2
2017-09-21T01:30:18.137Z,15.17
2017-09-21T01:31:26.974Z,15.29
2017-09-21T01:32:35.804Z,15.27
2017-09-21T01:33:44.638Z,15.25
2017-09-21T01:34:53.800Z,15.23
2017-09-21T01:36:02.642Z,15.27
2017-09-21T01:37:11.485Z,15.23
2017-09-21T01:38:20.314Z,15.23
2017-09-21T01:39:29.147Z,15.25
2017-09-21T01:40:37.985Z,15.2
2017-09-21T01:41:46.828Z,15.17
2017-09-21T01:42:55.660Z,15.11
2017-09-21T01:44:04.499Z,15.13
2017-09-21T01:45:13.331Z,15.11
2017-09-21T01:46:22.166Z,15.11
2017-09-21T01:47:30.999Z,15.06
2017-09-21T01:48:39.826Z,15.1
2017-09-21T01:49:48.669Z,15.1
2017-09-21T01:50:57.500Z,15.1
2017-09-21T01:52:06.661Z,15.09
2017-09-21T01:53:15.497Z,15.11
2017-09-21T01:54:24.335Z,15.13
2017-09-21T01:55:33.488Z,15.2
2017-09-21T01:56:42.325Z,15.07
2017-09-21T01:57:51.155Z,15.13
2017-09-21T01:58:59.995Z,15.13
2017-09-21T02:00:08.834Z,15.07
2017-09-21T02:01:17.665Z,15.1
2017-09-21T02:02:26.503Z,15.1
2017-09-21T02:03:35.342Z,14.99
2017-09-21T02:04:44.174Z,14.96
2017-09-21T02:05:53.012Z,15.02
2017-09-21T02:07:01.848Z,15.03
2017-09-21T02:08:11.006Z,15.03
2017-09-21T02:09:19.840Z,15.03
2017-09-21T02:10:28.681Z,15.07
2017-09-21T02:11:37.837Z,14.95
2017-09-21T02:12:46.676Z,14.95
2017-09-21T02:13:55.511Z,15.02
2017-09-21T02:15:04.345Z,14.99
2017-09-21T02:16:13.182Z,15.02
2017-09-21T02:17:22.339Z,14.94
2017-09-21T02:18:31.174Z,14.94
2017-09-21T02:19:40.006Z,14.96
2017-09-21T02:20:48.846Z,15.01
2017-09-21T02:21:57.673Z,14.98
2017-09-21T02:23:06.510Z,14.98
2017-09-21T02:24:15.345Z,15.06
2017-09-21T02:25:24.176Z,15.06
2017-09-21T02:26:33.009Z,14.96
2017-09-21T02:27:41.845Z,15.02
2017-09-21T02:28:50.684Z,14.99
2017-09-21T02:29:59.848Z,14.95
2017-09-21T02:31:08.686Z,14.98
2017-09-21T02:32:17.530Z,14.99
2017-09-21T02:33:26.359Z,14.99
2017-09-21T02:34:35.196Z,14.99
2017-09-21T02:35:44.032Z,14.98
2017-09-21T02:36:53.184Z,14.94
2017-09-21T02:38:02.016Z,14.94
2017-09-21T02:39:10.855Z,14.86
2017-09-21T02:40:19.688Z,14.91
2017-09-21T02:41:28.526Z,14.95
2017-09-21T02:42:37.357Z,14.98
2017-09-21T02:43:46.189Z,14.98
2017-09-21T02:44:55.032Z,14.98
2017-09-21T02:46:03.869Z,14.99
2017-09-21T02:47:12.700Z,14.94
2017-09-21T02:48:21.536Z,14.95
2017-09-21T02:49:30.373Z,14.92
2017-09-21T02:50:39.199Z,14.98
2017-09-21T02:51:48.036Z,14.98
2017-09-21T02:52:57.201Z,15.02
2017-09-21T02:54:06.038Z,14.98
2017-09-21T02:55:14.875Z,14.95
2017-09-21T02:56:23.709Z,14.98
2017-09-21T02:57:32.540Z,14.89
2017-09-21T02:58:41.397Z,14.92
2017-09-21T02:59:50.234Z,14.92
2017-09-21T03:00:59.070Z,14.96
2017-09-21T03:02:07.903Z,14.95
2017-09-21T03:03:17.060Z,14.98
2017-09-21T03:04:25.892Z,14.94
2017-09-21T03:05:34.733Z,14.92
2017-09-21T03:06:43.567Z,14.92
2017-09-21T03:07:52.402Z,14.91
2017-09-21T03:09:01.234Z,14.81
2017-09-21T03:10:10.070Z,14.81
2017-09-21T03:11:18.901Z,14.75
2017-09-21T03:12:27.741Z,14.91
2017-09-21T03:13:36.580Z,14.83
2017-09-21T03:14:45.414Z,14.86
2017-09-21T03:15:54.246Z,14.69
2017-09-21T03:17:03.084Z,14.8
2017-09-21T03:18:11.917Z,14.81
2017-09-21T03:19:20.752Z,14.73
2017-09-21T03:20:29.590Z,14.69
2017-09-21T03:21:38.426Z,14.83
2017-09-21T03:22:47.262Z,14.86
2017-09-21T03:23:56.101Z,14.8
2017-09-21T03:25:04.933Z,14.84
2017-09-21T03:26:13.767Z,14.72
2017-09-21T03:27:22.601Z,14.69
2017-09-21T03:28:31.438Z,14.81
2017-09-21T03:29:40.270Z,14.8
2017-09-21T03:30:49.103Z,14.7
2017-09-21T03:31:57.942Z,14.68
2017-09-21T03:33:07.102Z,14.72
2017-09-21T03:34:15.941Z,14.81
2017-09-21T03:35:24.777Z,14.72
2017-09-21T03:36:33.611Z,14.75
2017-09-21T03:37:42.473Z,14.7
2017-09-21T03:38:51.278Z,14.77
2017-09-21T03:40:00.113Z,14.78
2017-09-21T03:41:08.948Z,14.8
2017-09-21T03:42:17.787Z,14.8
2017-09-21T03:43:26.622Z,14.69
2017-09-21T03:44:35.451Z,14.7
2017-09-21T03:45:44.612Z,14.75
2017-09-21T03:46:53.447Z,14.68
2017-09-21T03:48:02.286Z,14.72
2017-09-21T03:49:11.443Z,14.65
2017-09-21T03:50:20.277Z,14.72
2017-09-21T03:51:29.110Z,14.69
2017-09-21T03:52:37.947Z,14.73
2017-09-21T03:53:46.796Z,14.69
2017-09-21T03:54:55.622Z,14.73
2017-09-21T03:56:04.459Z,14.68
2017-09-21T03:57:13.295Z,14.72
2017-09-21T03:58:22.130Z,14.72
2017-09-21T03:59:30.964Z,14.7
2017-09-21T04:00:40.120Z,14.78
2017-09-21T04:01:48.951Z,14.64
2017-09-21T04:02:57.787Z,14.7
2017-09-21T04:04:06.626Z,14.68
2017-09-21T04:05:15.464Z,14.68
2017-09-21T04:06:24.612Z,14.75
2017-09-21T04:07:33.453Z,14.72
2017-09-21T04:08:42.298Z,14.75
2017-09-21T04:09:51.135Z,14.68
2017-09-21T04:10:59.971Z,14.65
2017-09-21T04:12:08.810Z,14.61
2017-09-21T04:13:17.641Z,14.62
2017-09-21T04:14:26.481Z,14.6
2017-09-21T04:15:35.322Z,14.64
2017-09-21T04:16:44.153Z,14.57
2017-09-21T04:17:52.989Z,14.64
2017-09-21T04:19:01.820Z,14.61
2017-09-21T04:20:10.659Z,14.65
2017-09-21T04:21:19.829Z,14.61
2017-09-21T04:22:28.665Z,14.6
2017-09-21T04:23:37.496Z,14.62
2017-09-21T04:24:46.334Z,14.57
2017-09-21T04:25:55.489Z,14.61
2017-09-21T04:27:04.323Z,14.61
2017-09-21T04:28:13.166Z,14.6
2017-09-21T04:29:21.998Z,14.62
2017-09-21T04:30:30.832Z,14.65
2017-09-21T04:31:39.667Z,14.62
2017-09-21T04:32:48.508Z,14.62
2017-09-21T04:33:57.343Z,14.65
2017-09-21T04:35:06.176Z,14.65
2017-09-21T04:36:15.014Z,14.62
2017-09-21T04:37:23.841Z,14.68
2017-09-21T04:38:32.683Z,14.62
2017-09-21T04:39:41.841Z,14.68
2017-09-21T04:40:50.676Z,14.6
2017-09-21T04:41:59.511Z,14.62
2017-09-21T04:43:08.352Z,14.57
2017-09-21T04:44:17.183Z,14.64
2017-09-21T04:45:26.015Z,14.61
2017-09-21T04:46:34.851Z,14.58
2017-09-21T04:47:43.686Z,14.61
2017-09-21T04:48:52.525Z,14.64
2017-09-21T04:50:01.356Z,14.6
2017-09-21T04:51:10.187Z,14.6
2017-09-21T04:52:19.017Z,14.62
2017-09-21T04:53:27.857Z,14.6
2017-09-21T04:54:36.695Z,14.61
2017-09-21T04:55:45.532Z,14.65
2017-09-21T04:56:54.394Z,14.61
2017-09-21T04:58:03.199Z,14.62
2017-09-21T04:59:12.367Z,14.61
2017-09-21T05:00:21.203Z,14.61
2017-09-21T05:01:30.036Z,14.65
2017-09-21T05:02:38.871Z,14.62
2017-09-21T05:03:47.705Z,14.62
2017-09-21T05:04:56.544Z,14.68
2017-09-21T05:06:05.379Z,14.64
2017-09-21T05:07:14.215Z,14.62
2017-09-21T05:08:23.055Z,14.64
2017-09-21T05:09:31.891Z,14.61
2017-09-21T05:10:40.722Z,14.65
2017-09-21T05:11:49.559Z,14.64
2017-09-21T05:12:58.717Z,14.61
2017-09-21T05:14:07.553Z,14.61
2017-09-21T05:15:16.388Z,14.65
2017-09-21T05:16:25.225Z,14.65
2017-09-21T05:17:34.387Z,14.65
2017-09-21T05:18:43.218Z,14.68
2017-09-21T05:19:52.050Z,14.62
2017-09-21T05:21:00.887Z,14.62
2017-09-21T05:22:09.725Z,14.61
2017-09-21T05:23:18.556Z,14.64
2017-09-21T05:24:27.394Z,14.65
2017-09-21T05:25:36.228Z,14.61
2017-09-21T05:26:45.066Z,14.61
2017-09-21T05:27:53.900Z,14.68
2017-09-21T05:29:02.736Z,14.64
2017-09-21T05:30:11.574Z,14.65
2017-09-21T05:31:20.406Z,14.64
2017-09-21T05:32:29.235Z,14.61
2017-09-21T05:33:38.074Z,14.72
2017-09-21T05:34:47.236Z,14.6
2017-09-21T05:35:56.076Z,14.64
2017-09-21T05:37:04.908Z,14.55
2017-09-21T05:38:13.749Z,14.58
2017-09-21T05:39:22.579Z,14.57
2017-09-21T05:40:31.415Z,14.57
2017-09-21T05:41:40.570Z,14.46
2017-09-21T05:42:49.405Z,14.55
2017-09-21T05:43:58.246Z,14.55
2017-09-21T05:45:07.085Z,14.61
2017-09-21T05:46:15.912Z,14.62
2017-09-21T05:47:24.747Z,14.61
2017-09-21T05:48:33.582Z,14.62
2017-09-21T05:49:43.383Z,14.68
2017-09-21T05:50:52.224Z,14.62
2017-09-21T05:52:01.055Z,14.64
2017-09-21T05:53:09.896Z,14.61
2017-09-21T05:54:18.733Z,14.64
2017-09-21T05:55:27.908Z,14.61
2017-09-21T05:56:37.049Z,14.61
2017-09-21T05:57:45.885Z,14.61
2017-09-21T05:58:54.719Z,14.65
2017-09-21T06:00:03.557Z,14.65
2017-09-21T06:01:12.393Z,14.64
2017-09-21T06:02:21.550Z,14.61
2017-09-21T06:03:30.388Z,14.62
2017-09-21T06:04:39.224Z,14.61
2017-09-21T06:05:48.057Z,14.61
2017-09-21T06:06:56.892Z,14.6
2017-09-21T06:08:05.727Z,14.73
2017-09-21T06:09:14.564Z,14.73
2017-09-21T06:10:23.394Z,14.7
2017-09-21T06:11:32.497Z,14.7
2017-09-21T06:12:42.018Z,14.75
2017-09-21T06:13:50.855Z,14.68
2017-09-21T06:14:59.692Z,14.72
2017-09-21T06:16:08.527Z,14.69
2017-09-21T06:17:17.683Z,14.72
2017-09-21T06:18:26.518Z,14.8
2017-09-21T06:19:35.682Z,14.8
2017-09-21T06:20:44.516Z,14.88
2017-09-21T06:21:53.353Z,14.86
2017-09-21T06:23:02.185Z,14.83
2017-09-21T06:24:11.016Z,14.83
2017-09-21T06:25:19.862Z,14.83
2017-09-21T06:26:28.695Z,14.84
2017-09-21T06:27:37.527Z,14.81
2017-09-21T06:28:46.366Z,14.92
2017-09-21T06:29:55.201Z,15.01
2017-09-21T06:31:04.043Z,15.01
2017-09-21T06:32:12.877Z,15.01
2017-09-21T06:33:21.734Z,14.99
2017-09-21T06:34:30.574Z,14.94
2017-09-21T06:35:39.411Z,15.01
2017-09-21T06:36:48.242Z,15.07
2017-09-21T06:37:57.411Z,15.07
2017-09-21T06:39:06.246Z,15.02
2017-09-21T06:40:15.080Z,15.2
2017-09-21T06:41:24.437Z,15.2
2017-09-21T06:42:33.294Z,15.17
2017-09-21T06:43:42.134Z,15.27
2017-09-21T06:44:51.022Z,15.28
2017-09-21T06:45:59.894Z,15.19
2017-09-21T06:47:08.728Z,15.2
2017-09-21T06:48:17.567Z,15.29
2017-09-21T06:49:26.904Z,15.38
2017-09-21T06:50:36.456Z,15.31
2017-09-21T06:51:45.358Z,15.41
2017-09-21T06:52:54.752Z,15.38
2017-09-21T06:54:03.705Z,15.38
2017-09-21T06:55:12.628Z,15.36
2017-09-21T06:56:21.480Z,15.43
2017-09-21T06:57:30.384Z,15.39
2017-09-21T06:58:39.222Z,15.41
2017-09-21T06:59:48.057Z,15.43
2017-09-21T07:00:56.893Z,15.47
2017-09-21T07:02:05.875Z,15.47
2017-09-21T07:03:14.708Z,15.38
2017-09-21T07:04:23.546Z,15.49
2017-09-21T07:05:32.480Z,15.59
2017-09-21T07:06:41.374Z,15.56
2017-09-21T07:07:50.698Z,15.56
2017-09-21T07:08:59.536Z,15.53
2017-09-21T07:10:08.696Z,15.54
2017-09-21T07:11:17.531Z,15.69
2017-09-21T07:12:26.368Z,15.64
2017-09-21T07:13:35.201Z,15.67
2017-09-21T07:14:44.048Z,15.56
2017-09-21T07:15:52.878Z,15.68
2017-09-21T07:17:01.711Z,15.69
2017-09-21T07:18:10.547Z,15.68
2017-09-21T07:19:19.715Z,15.71
2017-09-21T07:20:28.553Z,15.69
2017-09-21T07:21:37.411Z,15.8
2017-09-21T07:22:46.379Z,15.82
2017-09-21T07:23:55.208Z,15.86
2017-09-21T07:25:04.045Z,15.82
2017-09-21T07:26:12.883Z,15.86
2017-09-21T07:27:21.813Z,15.9
2017-09-21T07:28:30.653Z,15.93
2017-09-21T07:29:39.864Z,15.92
2017-09-21T07:30:49.085Z,15.96
2017-09-21T07:31:57.918Z,16
2017-09-21T07:33:06.757Z,16.04
2017-09-21T07:34:15.593Z,16.01
2017-09-21T07:35:24.433Z,15.97
2017-09-21T07:36:33.264Z,16.07
2017-09-21T07:37:42.291Z,16.11
2017-09-21T07:38:51.492Z,16.07
2017-09-21T07:40:00.325Z,16.08
2017-09-21T07:41:09.160Z,16.09
2017-09-21T07:42:17.999Z,16.11
2017-09-21T07:43:26.836Z,16.23
2017-09-21T07:44:35.675Z,16.2
2017-09-21T07:45:44.512Z,16.25
2017-09-21T07:46:53.348Z,16.24
2017-09-21T07:48:02.191Z,16.28
2017-09-21T07:49:11.060Z,16.33
2017-09-21T07:50:20.230Z,16.35
2017-09-21T07:51:29.080Z,16.34
2017-09-21T07:52:38.421Z,16.38
2017-09-21T07:53:47.564Z,16.39
2017-09-21T07:54:56.800Z,16.39
2017-09-21T07:56:05.846Z,16.35
2017-09-21T07:57:15.077Z,16.34
2017-09-21T07:58:23.911Z,16.34
2017-09-21T07:59:32.740Z,16.39
2017-09-21T08:00:41.578Z,16.38
2017-09-21T08:01:50.414Z,16.34
2017-09-21T08:02:59.581Z,16.45
2017-09-21T08:04:08.416Z,16.39
2017-09-21T08:05:17.257Z,16.35
2017-09-21T08:06:26.088Z,16.34
2017-09-21T08:07:34.923Z,16.34
2017-09-21T08:08:43.762Z,16.39
2017-09-21T08:09:52.598Z,16.38
2017-09-21T08:11:01.448Z,16.31
2017-09-21T08:12:10.289Z,16.3
2017-09-21T08:13:19.124Z,16.33
2017-09-21T08:14:28.298Z,16.33
2017-09-21T08:15:37.130Z,16.33
2017-09-21T08:16:45.971Z,16.3
2017-09-21T08:17:54.803Z,16.35
2017-09-21T08:19:03.638Z,16.39
2017-09-21T08:20:12.470Z,16.43
2017-09-21T08:21:21.304Z,16.38
2017-09-21T08:22:30.143Z,16.39
2017-09-21T08:23:39.067Z,16.38
2017-09-21T08:24:48.068Z,16.38
2017-09-21T08:25:57.172Z,16.39
2017-09-21T08:27:06.228Z,16.39
2017-09-21T08:28:15.197Z,16.39
2017-09-21T08:29:24.596Z,16.41
2017-09-21T08:30:33.445Z,16.46
2017-09-21T08:31:42.279Z,16.48
2017-09-21T08:32:51.115Z,16.5
2017-09-21T08:33:59.955Z,16.41
2017-09-21T08:35:08.791Z,16.49
2017-09-21T08:36:17.629Z,16.48
2017-09-21T08:37:26.468Z,16.48
2017-09-21T08:38:35.302Z,16.57
2017-09-21T08:39:44.140Z,16.53
2017-09-21T08:40:52.976Z,16.52
2017-09-21T08:42:02.142Z,16.53
2017-09-21T08:43:10.981Z,16.56
2017-09-21T08:44:19.821Z,16.48
2017-09-21T08:45:28.982Z,16.53
2017-09-21T08:46:37.816Z,16.53
2017-09-21T08:47:46.652Z,16.52
2017-09-21T08:48:55.486Z,16.57
2017-09-21T08:50:04.323Z,16.48
2017-09-21T08:51:13.160Z,16.56
2017-09-21T08:52:22.001Z,16.53
2017-09-21T08:53:30.838Z,16.57
2017-09-21T08:54:39.993Z,16.6
2017-09-21T08:55:48.832Z,16.7
2017-09-21T08:56:57.671Z,16.67
2017-09-21T08:58:06.514Z,16.76
2017-09-21T08:59:15.669Z,16.83
2017-09-21T09:00:24.509Z,16.86
2017-09-21T09:01:33.348Z,16.88
2017-09-21T09:02:42.187Z,16.88
2017-09-21T09:03:51.018Z,17.01
2017-09-21T09:04:59.860Z,17.01
2017-09-21T09:06:08.698Z,16.94
2017-09-21T09:07:17.852Z,17.08
2017-09-21T09:08:26.687Z,17.01
2017-09-21T09:09:35.528Z,17.12
2017-09-21T09:10:44.363Z,17.14
2017-09-21T09:11:53.528Z,17.12
2017-09-21T09:13:02.684Z,17.16
2017-09-21T09:14:11.520Z,17.15
2017-09-21T09:15:20.689Z,17.18
2017-09-21T09:16:29.538Z,17.16
2017-09-21T09:17:38.373Z,17.12
2017-09-21T09:18:47.216Z,17.12
2017-09-21T09:19:56.049Z,17.28
2017-09-21T09:21:04.884Z,17.21
2017-09-21T09:22:13.725Z,17.25
2017-09-21T09:23:22.560Z,17.34
2017-09-21T09:24:31.394Z,17.41
2017-09-21T09:25:40.237Z,17.46
2017-09-21T09:26:49.393Z,17.46
2017-09-21T09:27:58.229Z,17.58
2017-09-21T09:29:07.066Z,17.56
2017-09-21T09:30:15.905Z,17.58
2017-09-21T09:31:24.738Z,17.62
2017-09-21T09:32:33.576Z,17.64
2017-09-21T09:33:42.408Z,17.62
2017-09-21T09:34:51.245Z,17.63
2017-09-21T09:36:00.082Z,17.59
2017-09-21T09:37:08.917Z,17.66
2017-09-21T09:38:17.761Z,17.66
2017-09-21T09:39:26.601Z,17.66
2017-09-21T09:40:35.436Z,17.72
2017-09-21T09:41:44.273Z,17.68
2017-09-21T09:42:53.496Z,17.68
2017-09-21T09:44:02.477Z,17.72
2017-09-21T09:45:11.344Z,17.66
2017-09-21T09:46:20.179Z,17.59
2017-09-21T09:47:29.015Z,17.58
2017-09-21T09:48:37.854Z,17.55
2017-09-21T09:49:47.042Z,17.54
2017-09-21T09:50:56.156Z,17.62
2017-09-21T09:52:05.180Z,17.64
2017-09-21T09:53:14.097Z,17.78
2017-09-21T09:54:22.931Z,17.66
2017-09-21T09:55:31.924Z,17.78
2017-09-21T09:56:41.042Z,17.77
2017-09-21T09:57:50.212Z,17.89
2017-09-21T09:58:59.098Z,17.87
2017-09-21T10:00:08.527Z,17.79
2017-09-21T10:01:17.804Z,17.86
2017-09-21T10:02:26.743Z,17.86
2017-09-21T10:03:35.845Z,17.78
2017-09-21T10:04:44.862Z,17.84
2017-09-21T10:05:53.773Z,17.92
2017-09-21T10:07:03.025Z,17.82
2017-09-21T10:08:12.288Z,18
2017-09-21T10:09:21.516Z,18.02
2017-09-21T10:10:30.352Z,17.96
2017-09-21T10:11:39.361Z,18.02
2017-09-21T10:12:48.852Z,17.99
2017-09-21T10:13:57.741Z,18.05
2017-09-21T10:15:06.623Z,18.11
2017-09-21T10:16:15.837Z,18.17
2017-09-21T10:17:24.675Z,18.2
2017-09-21T10:18:33.515Z,18.23
2017-09-21T10:19:42.363Z,18.35
2017-09-21T10:20:51.200Z,18.39
2017-09-21T10:22:00.037Z,18.45
2017-09-21T10:23:08.876Z,18.51
2017-09-21T10:24:17.715Z,18.57
2017-09-21T10:25:26.914Z,18.66
2017-09-21T10:26:35.755Z,18.75
2017-09-21T10:27:44.594Z,18.69
2017-09-21T10:28:53.430Z,18.62
2017-09-21T10:30:02.268Z,18.69
2017-09-21T10:31:11.109Z,18.66
2017-09-21T10:32:19.946Z,18.69
2017-09-21T10:33:28.781Z,18.66
2017-09-21T10:34:37.623Z,18.66
2017-09-21T10:35:46.465Z,18.63
2017-09-21T10:36:55.300Z,18.67
2017-09-21T10:38:04.140Z,18.55
2017-09-21T10:39:12.979Z,18.52
2017-09-21T10:40:21.822Z,18.66
2017-09-21T10:41:30.657Z,18.72
2017-09-21T10:42:39.820Z,18.7
2017-09-21T10:43:48.659Z,18.8
2017-09-21T10:44:57.498Z,18.76
2017-09-21T10:46:06.336Z,18.76
2017-09-21T10:47:15.174Z,18.8
2017-09-21T10:48:24.010Z,18.82
2017-09-21T10:49:32.847Z,18.87
2017-09-21T10:50:41.685Z,18.87
2017-09-21T10:51:50.525Z,18.82
2017-09-21T10:52:59.367Z,18.76
2017-09-21T10:54:08.198Z,18.78
2017-09-21T10:55:17.041Z,18.73
2017-09-21T10:56:25.876Z,18.69
2017-09-21T10:57:34.718Z,18.63
2017-09-21T10:58:43.555Z,18.6
2017-09-21T10:59:52.390Z,18.63
2017-09-21T11:01:01.224Z,18.63
2017-09-21T11:02:10.066Z,18.6
2017-09-21T11:03:18.907Z,18.6
2017-09-21T11:04:27.741Z,18.63
2017-09-21T11:05:36.581Z,18.57
2017-09-21T11:06:45.426Z,18.6
2017-09-21T11:07:54.262Z,18.66
2017-09-21T11:09:03.106Z,18.58
2017-09-21T11:10:11.942Z,18.66
2017-09-21T11:11:20.779Z,18.66
2017-09-21T11:12:29.618Z,18.66
2017-09-21T11:13:38.460Z,18.65
2017-09-21T11:14:47.301Z,18.62
2017-09-21T11:15:56.135Z,18.58
2017-09-21T11:17:04.971Z,18.67
2017-09-21T11:18:13.803Z,18.63
2017-09-21T11:19:22.650Z,18.73
2017-09-21T11:20:31.489Z,18.81
2017-09-21T11:21:40.328Z,18.78
2017-09-21T11:22:49.167Z,18.87
2017-09-21T11:23:58.003Z,18.94
2017-09-21T11:25:06.844Z,18.98
2017-09-21T11:26:15.682Z,19.1
2017-09-21T11:27:24.529Z,19
2017-09-21T11:28:33.360Z,18.98
2017-09-21T11:29:42.195Z,19.08
2017-09-21T11:30:51.035Z,19.02
2017-09-21T11:31:59.878Z,19
2017-09-21T11:33:09.047Z,19.02
2017-09-21T11:34:17.880Z,19.06
2017-09-21T11:35:26.727Z,19
2017-09-21T11:36:35.565Z,18.95
2017-09-21T11:37:44.402Z,18.95
2017-09-21T11:38:53.237Z,18.98
2017-09-21T11:40:02.073Z,18.98
2017-09-21T11:41:10.914Z,18.94
2017-09-21T11:42:19.753Z,18.9
2017-09-21T11:43:28.646Z,18.82
2017-09-21T11:44:37.481Z,18.8
2017-09-21T11:45:46.398Z,18.81
2017-09-21T11:46:55.245Z,18.78
2017-09-21T11:48:04.087Z,18.78
2017-09-21T11:49:12.926Z,18.72
2017-09-21T11:50:21.764Z,18.69
2017-09-21T11:51:30.601Z,18.57
2017-09-21T11:52:39.444Z,18.63
2017-09-21T11:53:48.280Z,18.58
2017-09-21T11:54:57.356Z,18.55
2017-09-21T11:56:06.963Z,18.44
2017-09-21T11:57:16.025Z,18.45
2017-09-21T11:58:25.310Z,18.51
2017-09-21T11:59:34.636Z,18.41
2017-09-21T12:00:44.487Z,18.44
2017-09-21T12:01:54.526Z,18.32
2017-09-21T12:03:03.905Z,18.3
2017-09-21T12:04:13.305Z,18.39
2017-09-21T12:05:22.478Z,18.25
2017-09-21T12:06:31.742Z,18.23
2017-09-21T12:07:40.643Z,18.17
2017-09-21T12:08:49.481Z,18.14
2017-09-21T12:09:58.323Z,18.17
2017-09-21T12:11:07.170Z,18.12
2017-09-21T12:12:16.031Z,18.1
2017-09-21T12:13:24.912Z,18.1
2017-09-21T12:14:33.753Z,18.1
2017-09-21T12:15:42.591Z,18.08
2017-09-21T12:16:51.431Z,18.12
2017-09-21T12:18:00.274Z,18.03
2017-09-21T12:19:09.115Z,18.07
2017-09-21T12:20:17.954Z,18.02
2017-09-21T12:21:26.792Z,18.03
2017-09-21T12:22:35.625Z,17.95
2017-09-21T12:23:44.469Z,17.96
2017-09-21T12:24:53.309Z,17.96
2017-09-21T12:26:02.147Z,17.97
2017-09-21T12:27:10.982Z,17.96
2017-09-21T12:28:19.821Z,17.9
2017-09-21T12:29:28.659Z,17.97
2017-09-21T12:30:37.498Z,18
2017-09-21T12:31:46.342Z,17.95
2017-09-21T12:32:55.178Z,17.89
2017-09-21T12:34:04.011Z,17.92
2017-09-21T12:35:12.846Z,17.93
2017-09-21T12:36:21.688Z,17.95
2017-09-21T12:37:30.529Z,17.89
2017-09-21T12:38:39.377Z,17.87
2017-09-21T12:39:48.207Z,17.93
2017-09-21T12:40:57.043Z,17.84
2017-09-21T12:42:05.876Z,17.82
2017-09-21T12:43:14.720Z,17.84
2017-09-21T12:44:23.553Z,17.86
2017-09-21T12:45:32.394Z,17.87
2017-09-21T12:46:41.233Z,17.84
2017-09-21T12:47:50.067Z,17.89
2017-09-21T12:48:58.908Z,17.82
2017-09-21T12:50:07.748Z,17.84
2017-09-21T12:51:16.585Z,17.82
2017-09-21T12:52:25.425Z,17.84
2017-09-21T12:53:34.584Z,17.86
2017-09-21T12:54:43.424Z,17.89
2017-09-21T12:55:52.266Z,17.79
2017-09-21T12:57:01.106Z,17.79
2017-09-21T12:58:09.942Z,17.75
2017-09-21T12:59:18.779Z,17.77
2017-09-21T13:00:27.616Z,17.62
2017-09-21T13:01:36.465Z,17.71
2017-09-21T13:02:45.305Z,17.7
2017-09-21T13:03:54.141Z,17.75
2017-09-21T13:05:02.975Z,17.63
2017-09-21T13:06:11.816Z,17.66
2017-09-21T13:07:20.651Z,17.66
2017-09-21T13:08:29.491Z,17.71
2017-09-21T13:09:38.327Z,17.7
2017-09-21T13:10:47.167Z,17.59
2017-09-21T13:11:56.000Z,17.64
2017-09-21T13:13:05.173Z,17.55
2017-09-21T13:14:14.012Z,17.56
2017-09-21T13:15:22.859Z,17.56
2017-09-21T13:16:31.700Z,17.55
2017-09-21T13:17:40.535Z,17.54
2017-09-21T13:18:49.372Z,17.48
2017-09-21T13:19:58.546Z,17.49
2017-09-21T13:21:07.383Z,17.55
2017-09-21T13:22:16.224Z,17.52
2017-09-21T13:23:25.053Z,17.52
2017-09-21T13:24:33.895Z,17.52
2017-09-21T13:25:42.730Z,17.49
2017-09-21T13:26:51.570Z,17.56
2017-09-21T13:28:00.404Z,17.46
2017-09-21T13:29:09.243Z,17.49
2017-09-21T13:30:18.078Z,17.55
2017-09-21T13:31:26.918Z,17.48
2017-09-21T13:32:35.755Z,17.54
2017-09-21T13:33:44.597Z,17.51
2017-09-21T13:34:53.430Z,17.49
2017-09-21T13:36:02.308Z,17.49
2017-09-21T13:37:11.108Z,17.62
2017-09-21T13:38:19.949Z,17.58
2017-09-21T13:39:28.781Z,17.59
2017-09-21T13:40:37.624Z,17.64
2017-09-21T13:41:46.458Z,17.7
2017-09-21T13:42:55.299Z,17.72
2017-09-21T13:44:04.141Z,17.66
2017-09-21T13:45:12.976Z,17.7
2017-09-21T13:46:21.816Z,17.71
2017-09-21T13:47:30.658Z,17.74
2017-09-21T13:48:39.494Z,17.74
2017-09-21T13:49:48.674Z,17.74
2017-09-21T13:50:57.511Z,17.75
2017-09-21T13:52:06.349Z,17.77
2017-09-21T13:53:15.190Z,17.72
2017-09-21T13:54:24.031Z,17.74
2017-09-21T13:55:32.865Z,17.78
2017-09-21T13:56:41.702Z,17.77
2017-09-21T13:57:50.542Z,17.89
2017-09-21T13:58:59.381Z,17.84
2017-09-21T14:00:08.546Z,17.77
2017-09-21T14:01:17.386Z,17.87
2017-09-21T14:02:26.220Z,17.84
2017-09-21T14:03:35.056Z,17.89
2017-09-21T14:04:44.221Z,17.89
2017-09-21T14:05:53.058Z,17.89
2017-09-21T14:07:01.894Z,17.89
2017-09-21T14:08:10.732Z,17.84
2017-09-21T14:09:19.567Z,17.81
2017-09-21T14:10:28.408Z,17.86
2017-09-21T14:11:37.253Z,17.86
2017-09-21T14:12:46.416Z,17.93
2017-09-21T14:13:55.256Z,17.97
2017-09-21T14:15:04.092Z,17.95
2017-09-21T14:16:12.930Z,17.97
2017-09-21T14:17:21.768Z,18.03
2017-09-21T14:18:30.604Z,18.05
2017-09-21T14:19:39.443Z,18.07
2017-09-21T14:20:48.282Z,18.03
2017-09-21T14:21:57.125Z,18.08
2017-09-21T14:23:05.957Z,18.12
2017-09-21T14:24:14.796Z,18.1
2017-09-21T14:25:23.629Z,18.11
2017-09-21T14:26:32.468Z,18.11
2017-09-21T14:27:41.304Z,18.1
2017-09-21T14:28:50.146Z,18.14
2017-09-21T14:29:59.307Z,18.14
2017-09-21T14:31:08.145Z,18.14
2017-09-21T14:32:16.980Z,18.18
2017-09-21T14:33:25.818Z,18.21
2017-09-21T14:34:34.652Z,18.26
2017-09-21T14:35:43.494Z,18.26
2017-09-21T14:36:52.334Z,18.27
2017-09-21T14:38:01.175Z,18.25
2017-09-21T14:39:10.012Z,18.26
2017-09-21T14:40:18.861Z,18.17
2017-09-21T14:41:27.697Z,18.26
2017-09-21T14:42:36.541Z,18.26
2017-09-21T14:43:45.382Z,18.2
2017-09-21T14:44:54.214Z,18.21
2017-09-21T14:46:03.056Z,18.26
2017-09-21T14:47:11.897Z,18.2
2017-09-21T14:48:20.733Z,18.17
2017-09-21T14:49:29.593Z,18.25
2017-09-21T14:50:38.408Z,18.11